Franklin Grove, IL (61031)

12:00 PM CST on January 16, 2017 (GMT -0600)
Lost Lake Ogle County, Illinois | | Change Station
Active Advisory: Winter Weather Statement

Elev 761 ft 41.91 °N, 89.35 °W | Updated 1 minute ago

Rain
Rain
33.3 °F
Feels Like 33 °F
N
3.0
Wind Variable Wind from East
Gusts 5.0 mph

Today
High -- | Low -- °F
--% Chance of Precip.
Yesterday
High -- | Low -- °F
Precip. -- in
Pressure 30.15 in
Visibility 2.0 miles
Clouds Overcast 400 ft
Windchill 33 °F
Dew Point 32 °F
Humidity 96%
Rainfall 0.00 in
Snow Depth Not available.
7:21 AM 4:52 PM
Waning Gibbous, 79% visible
METAR KRPJ 161735Z AUTO 12008KT 2SM -RA OVC004 01/00 A3015 RMK AO2 P0003 T00050001
Pressure 30.15 in
Visibility 2.0 miles
Clouds Overcast 400 ft
Windchill 33 °F
Dew Point 32 °F
Humidity 96%
Rainfall 0.00 in
Snow Depth Not available.
7:21 AM 4:52 PM
Waning Gibbous, 79% visible
METAR KRPJ 161735Z AUTO 12008KT 2SM -RA OVC004 01/00 A3015 RMK AO2 P0003 T00050001

Get Your Daily Forecast Email!

Thanks for signing up!

Be on the lookout for a verification email in your inbox.

You'll start receiving the daily forecast at 8 AM.

×

10-Day Weather Forecast

Almanac

Astronomy

Jan. 16, 2017 Rise Set
Actual Time
Civil Twilight
Nautical Twilight
Astronomical Twilight
Moon
Length of Visible Light
Length of Day
Tomorrow will be .
, % of the Moon is Illuminated

Today's Extremes

State Highs State Lows

Community

WunderPhotos

Upload Photos

1,962,540 photos uploaded!

WunderBlog® & News

Nearby

Air Quality

  Air Quality AQ Index Pollutant
Not available.

Snow Depth

Station Depth Elevation

Earthquake Activity

City Distance Mag. Time & Date
Minimum magnitude displayed is 2.5.

Coastal Water Temperatures

Place Temperature

Stations

Nearby Weather Stations

Station Location Temp. Windchill Dew Point Humidity Wind Precip. Elev Updated Type
                   

Watches & Warnings

Winter Weather Statement
Issued: 9:56 AM CST Jan. 16, 2017 – National Weather Service

... Winter Weather Advisory remains in effect until noon CST
today...

* timing... freezing rain will continue this morning.
Precipitation should transition to all rain by around noon.

* Main impact... ice accumulation up to a tenth of an inch mixed
with light sleet accumulations.

* Other impacts... accumulation of ice on untreated roads will
make travel hazardous.

Precautionary/preparedness actions...

A Winter Weather Advisory means that periods of snow... sleet... or
freezing rain will cause travel difficulties. Be prepared for
slippery roads and limited visibilities... and use caution while
driving.



Jee